Marshall, CA (94940)

8:33 PM PDT on May 05, 2015 (GMT -0700)
Tomales Bay Oyster Co. Cove | | Change Station
CLOSE
Current Station
Personal Weather Station
Location: Marshall, CA
Elevation: 7 ft
Nearby Weather Stations

Elev 7 ft 38.12 °N, 122.85 °W | Updated 9 minutes ago

Clear
Clear
52.4 °F
Feels Like 52.4 °F
N
6.0
Wind Variable Wind from WNW
Gusts 12.0 mph

Today
High -- | Low -- °F
--% Chance of Precip.
Yesterday
High -- | Low -- °F
Precip. -- in
6:10 AM 8:06 PM
Waning Gibbous, 96% visible
Pressure 29.88 in
Visibility 10.0 miles
Clouds Few 2400 ft
Dew Point 48 °F
Humidity 85%
Rainfall 0.00 in
Snow Depth Not available.
UV 0 out of 12
Pollen 6.70 out of 12
Air Quality Not available.
Flu Activity Sporadic
METAR KO69 060315Z AUTO 30004KT 10SM FEW024 13/08 A2988 RMK AO1

More Conditions Fewer Conditions

Pressure 29.88 in
Visibility 10.0 miles
Clouds Few 2400 ft
Dew Point 48 °F
Humidity 85%
Rainfall 0.00 in
Snow Depth Not available.
UV 0 out of 12
Pollen 6.70 out of 12
Air Quality Not available.
Flu Activity Sporadic
METAR KO69 060315Z AUTO 30004KT 10SM FEW024 13/08 A2988 RMK AO1

More Conditions Fewer Conditions

10-Day Weather Forecast

Almanac

Astronomy

May. 05, 2015 Rise Set
Actual Time
Civil Twilight
Nautical Twilight
Astronomical Twilight
Moon
Length of Visible Light
Length of Day
Tomorrow will be .
, % of the Moon is Illuminated

Today's Extremes

State Highs State Lows

Community

WunderPhotos

Upload Photos

1,819,068 photos uploaded!

WunderBlogs® & News

Nearby

Air Quality

  Air Quality AQ Index Pollutant
Not available.

Snow Depth

Station Depth Elevation

Earthquake Activity

City Distance Mag. Time & Date
Minimum magnitude displayed is 2.5.

Coastal Water Temperatures

Place Temperature

Stations

Nearby Weather Stations

Station Location Temp. Windchill Dew Point Humidity Wind Precip. Elev Updated Type